Discovery — 3FII9 — position and weather

sailwx.info

Track history (hours):
 
Tides and Currents Weather Stations Pressure Air Temp Water Temp Dewpoint Dewpoint Depression Visibility Wind Speed Wind Dir Waves Ship Positions

Discovery

Operator: V Ships Leisure SAM

Last reported at 2019-Feb-20 23:13 UTC. Time now 2019-Feb-23 18:14 UTC.
Position N 29°01' W 093°13'.

Length 177 m; draft 10.2 m.

Type: Cargo ship. MMSI: 353389000.

Date/timePositionNaut miles runAvg speedWind from/ knotsBaromVisibWave heightAir tempDewpointWater temp
2019-Feb-20 23:13N 29°01' W 093°13'312.3
2019-Feb-20 23:00N 29°04' W 093°13'712.2
2019-Feb-20 22:24N 29°12' W 093°14'512.0
2019-Feb-20 22:00N 29°16' W 093°14'510.4
2019-Feb-20 21:30N 29°21' W 093°14'910.2
2019-Feb-20 20:37N 29°31' W 093°13'2 9.9
2019-Feb-20 20:25N 29°32' W 093°14'410.2
2019-Feb-20 20:00N 29°35' W 093°17'5 9.4
2019-Feb-20 19:28N 29°40' W 093°20'4 8.9
2019-Feb-20 19:00N 29°44' W 093°20'4 8.4
2019-Feb-20 18:30N 29°48' W 093°21'4 7.8
2019-Feb-20 18:00N 29°52' W 093°21'4 8.4
2019-Feb-20 17:30N 29°56' W 093°20'4 7.6
2019-Feb-20 17:00N 30°00' W 093°20'4 7.5
2019-Feb-20 16:30N 30°04' W 093°20'3 6.9
2019-Feb-20 16:00N 30°07' W 093°20'2 4.7
2019-Feb-20 15:30N 30°10' W 093°19'2 4.2
2019-Feb-20 15:00N 30°11' W 093°18'2 4.1
2019-Feb-20 14:30N 30°12' W 093°16'1 1.1
2019-Feb-20 14:00N 30°13' W 093°16'0 0.0
2019-Feb-20 13:27N 30°13' W 093°16'0 0.0
2019-Feb-20 13:00N 30°13' W 093°16'0 0.0
2019-Feb-20 12:30N 30°13' W 093°16'0 0.0
2019-Feb-20 12:00N 30°13' W 093°16'0 0.1
2019-Feb-20 11:27N 30°13' W 093°16'0 0.1
2019-Feb-20 11:00N 30°13' W 093°16'0 0.0
2019-Feb-20 10:30N 30°13' W 093°16'0 0.0
2019-Feb-20 10:00N 30°13' W 093°16'0 0.0
2019-Feb-20 09:30N 30°13' W 093°16'0 0.0
2019-Feb-20 09:00N 30°13' W 093°16'0 0.0
2019-Feb-20 08:30N 30°13' W 093°16'0 0.0
2019-Feb-20 08:00N 30°13' W 093°16'0 0.0
2019-Feb-20 07:30N 30°13' W 093°16'0 0.0
2019-Feb-20 07:00N 30°13' W 093°16'0 0.0
2019-Feb-20 06:30N 30°13' W 093°16'0 0.0
2019-Feb-20 06:00N 30°13' W 093°16'0 0.0
2019-Feb-20 05:30N 30°13' W 093°16'0 0.0
2019-Feb-20 04:57N 30°13' W 093°16'0 0.0
2019-Feb-20 04:30N 30°13' W 093°16'0 0.0
2019-Feb-20 04:00N 30°13' W 093°16'0 0.1
2019-Feb-20 03:00N 30°13' W 093°16'0 0.0
2019-Feb-20 02:30N 30°13' W 093°16'0 0.0
2019-Feb-20 02:00N 30°13' W 093°16'0 0.0
2019-Feb-20 01:30N 30°13' W 093°16'0 0.0
2019-Feb-20 00:57N 30°13' W 093°16'0 0.0
2019-Feb-20 00:27N 30°13' W 093°16'0 0.0
2019-Feb-20 00:00N 30°13' W 093°16'0 0.0
2019-Feb-19 23:30N 30°13' W 093°16'0 0.0
2019-Feb-19 23:00N 30°13' W 093°16'0 0.0
2019-Feb-19 22:30N 30°13' W 093°16'0 0.0
2019-Feb-19 22:00N 30°13' W 093°16'0 0.0
2019-Feb-19 21:30N 30°13' W 093°16'0 0.0
2019-Feb-19 21:00N 30°13' W 093°16'0 0.0
2019-Feb-19 20:30N 30°13' W 093°16'0 0.0
2019-Feb-19 20:00N 30°13' W 093°16'0 0.0
2019-Feb-19 19:30N 30°13' W 093°16'0 0.0
2019-Feb-19 19:00N 30°13' W 093°16'0 0.5
2019-Feb-19 18:30N 30°13' W 093°16'1 2.0
2019-Feb-19 18:00N 30°14' W 093°15'0 0.0
2019-Feb-19 17:25N 30°14' W 093°15'0 0.0
2019-Feb-19 16:58N 30°14' W 093°15'0 0.0
2019-Feb-19 16:28N 30°14' W 093°15'0 0.0
2019-Feb-19 15:55N 30°14' W 093°15'0 0.0
2019-Feb-19 15:28N 30°14' W 093°15'0 0.0
2019-Feb-19 14:58N 30°14' W 093°15'0 0.0
2019-Feb-19 14:28N 30°14' W 093°15'0 0.0
2019-Feb-19 13:55N 30°14' W 093°15'0 0.0
2019-Feb-19 13:28N 30°14' W 093°15'0 0.0
2019-Feb-19 12:55N 30°14' W 093°15'0 0.0
2019-Feb-19 12:28N 30°14' W 093°15'0 0.0
2019-Feb-19 11:58N 30°14' W 093°15'0 0.0
2019-Feb-19 11:25N 30°14' W 093°15'0 0.0
2019-Feb-19 10:55N 30°14' W 093°15'0 0.0
2019-Feb-19 10:28N 30°14' W 093°15'0 0.0
2019-Feb-19 09:58N 30°14' W 093°15'0 0.0
2019-Feb-19 09:25N 30°14' W 093°15'0 0.0
2019-Feb-19 08:58N 30°14' W 093°15'0 0.0
2019-Feb-19 08:13N 30°14' W 093°15'0 0.0
2019-Feb-19 07:55N 30°14' W 093°15'0 0.0
2019-Feb-19 07:19N 30°14' W 093°15'0 0.0
2019-Feb-19 06:55N 30°14' W 093°15'0 0.0
2019-Feb-19 06:25N 30°14' W 093°15'0 0.0
2019-Feb-19 05:58N 30°14' W 093°15'0 0.0
2019-Feb-19 05:28N 30°14' W 093°15'0 0.0
2019-Feb-19 04:55N 30°14' W 093°15'0 0.0
2019-Feb-19 04:19N 30°14' W 093°15'0 0.0
2019-Feb-19 03:55N 30°14' W 093°15'0 0.0
2019-Feb-19 03:22N 30°14' W 093°15'0 0.0
2019-Feb-19 02:58N 30°14' W 093°15'0 0.0
2019-Feb-19 02:28N 30°14' W 093°15'0 0.0
2019-Feb-19 01:49N 30°14' W 093°15'0 0.0
2019-Feb-19 01:28N 30°14' W 093°15'0 0.0
2019-Feb-19 00:55N 30°14' W 093°15'0 0.0
2019-Feb-19 00:13N 30°14' W 093°15'0 0.0
2019-Feb-18 23:55N 30°14' W 093°15'0 0.0
2019-Feb-18 23:19N 30°14' W 093°15'0 0.0
2019-Feb-18 22:52N 30°14' W 093°15'0 0.0
2019-Feb-18 22:28N 30°14' W 093°15'0 0.0
2019-Feb-18 21:55N 30°14' W 093°15'0 0.0
2019-Feb-18 21:25N 30°14' W 093°15'0 0.0
2019-Feb-18 20:55N 30°14' W 093°15'0 0.0
2019-Feb-18 20:28N 30°14' W 093°15'0 0.0
2019-Feb-18 19:58N 30°14' W 093°15'0 0.0
2019-Feb-18 19:28N 30°14' W 093°15'0 0.0
2019-Feb-18 18:58N 30°14' W 093°15'0 0.0
2019-Feb-18 18:28N 30°14' W 093°15'0 0.0
2019-Feb-18 17:55N 30°14' W 093°15'0 0.0
2019-Feb-18 17:22N 30°14' W 093°15'0 0.0
2019-Feb-18 16:58N 30°14' W 093°15'0 0.0
2019-Feb-18 16:28N 30°14' W 093°15'0 0.0
2019-Feb-18 15:43N 30°14' W 093°15'0 0.0
2019-Feb-18 15:16N 30°14' W 093°15'0 0.0
2019-Feb-18 14:58N 30°14' W 093°15'0 0.0
2019-Feb-18 14:22N 30°14' W 093°15'0 0.0
2019-Feb-18 13:58N 30°14' W 093°15'0 0.0
2019-Feb-18 13:04N 30°14' W 093°15'0 0.0
2019-Feb-18 12:55N 30°14' W 093°15'0 0.0
2019-Feb-18 12:28N 30°14' W 093°15'0 0.0
2019-Feb-18 11:58N 30°14' W 093°15'0 0.0
2019-Feb-18 11:28N 30°14' W 093°15'0 0.0
2019-Feb-18 10:55N 30°14' W 093°15'0 0.0
2019-Feb-18 10:28N 30°14' W 093°15'0 0.0
2019-Feb-18 09:34N 30°14' W 093°15'0 0.0
2019-Feb-18 09:16N 30°14' W 093°15'0 0.0
2019-Feb-18 08:52N 30°14' W 093°15'0 0.0
2019-Feb-18 08:28N 30°14' W 093°15'0 0.0
2019-Feb-18 07:04N 30°14' W 093°15'0 0.0
2019-Feb-18 06:58N 30°14' W 093°15'0 0.0
2019-Feb-18 06:28N 30°14' W 093°15'0 0.0
2019-Feb-18 05:58N 30°14' W 093°15'0 0.0
2019-Feb-18 05:10N 30°14' W 093°15'0 0.0
2019-Feb-18 04:58N 30°14' W 093°15'0 0.0
2019-Feb-18 04:28N 30°14' W 093°15'0 0.0
2019-Feb-18 03:58N 30°14' W 093°15'0 0.0
2019-Feb-18 03:28N 30°14' W 093°15'0 0.0
2019-Feb-18 02:58N 30°14' W 093°15'0 0.0
2019-Feb-18 02:28N 30°14' W 093°15'0 0.0
2019-Feb-18 01:58N 30°14' W 093°15'0 0.0
2019-Feb-18 01:22N 30°14' W 093°15'0 0.0
2019-Feb-18 00:58N 30°14' W 093°15'0 0.0
2019-Feb-18 00:28N 30°14' W 093°15'0 0.0
2019-Feb-17 23:58N 30°14' W 093°15'0 0.0
2019-Feb-17 23:28N 30°14' W 093°15'0 0.0
2019-Feb-17 22:58N 30°14' W 093°15'0 0.0
2019-Feb-17 22:28N 30°14' W 093°15'0 0.0
2019-Feb-17 21:58N 30°14' W 093°15'0 0.0
2019-Feb-17 21:28N 30°14' W 093°15'0 0.0
2019-Feb-17 21:00N 30°14' W 093°15'1 1.4
2019-Feb-17 20:30N 30°13' W 093°16'3 6.3
2019-Feb-17 20:00N 30°11' W 093°18'3 5.3
2019-Feb-17 19:30N 30°09' W 093°20'4 7.6
2019-Feb-17 19:00N 30°05' W 093°20'4 8.3
2019-Feb-17 18:30N 30°01' W 093°20'4 7.7
2019-Feb-17 18:00N 29°57' W 093°20'5 9.2
2019-Feb-17 17:30N 29°52' W 093°21'5 9.6
2019-Feb-17 17:00N 29°48' W 093°21'510.4
2019-Feb-17 16:30N 29°42' W 093°20'8 9.4
2019-Feb-17 15:37N 29°35' W 093°16'3 0.8
2019-Feb-17 12:25N 29°34' W 093°13'0 0.0
2019-Feb-17 11:49N 29°34' W 093°13'0 0.0
2019-Feb-17 07:46N 29°34' W 093°13'0 0.0
2019-Feb-17 07:22N 29°34' W 093°13'0 0.0
2019-Feb-17 06:01N 29°34' W 093°13'0 0.0
2019-Feb-17 05:46N 29°34' W 093°13'0 0.0
2019-Feb-17 05:28N 29°34' W 093°13'0 0.0
2019-Feb-17 04:58N 29°34' W 093°13'0 0.0
2019-Feb-17 01:16N 29°34' W 093°13'0 0.0
2019-Feb-16 22:46N 29°34' W 093°13'75 3.7
2019-Feb-16 02:22N 28°20' W 092°59'  
Track history (hours):
 
Tides and Currents Weather Stations Pressure Air Temp Water Temp Dewpoint Dewpoint Depression Visibility Wind Speed Wind Dir Waves Ship Positions

Discovery

Operator: V Ships Leisure SAM

Last reported at 2019-Feb-20 23:13 UTC. Time now 2019-Feb-23 18:14 UTC.
Position N 29°01' W 093°13'.

Length 177 m; draft 10.2 m.

Type: Cargo ship. MMSI: 353389000.

Date/timePositionNaut miles runAvg speedWind from/ knotsBaromVisibWave heightAir tempDewpointWater temp
2019-Feb-20 23:13N 29°01' W 093°13'312.3
2019-Feb-20 23:00N 29°04' W 093°13'712.2
2019-Feb-20 22:24N 29°12' W 093°14'512.0
2019-Feb-20 22:00N 29°16' W 093°14'510.4
2019-Feb-20 21:30N 29°21' W 093°14'910.2
2019-Feb-20 20:37N 29°31' W 093°13'2 9.9
2019-Feb-20 20:25N 29°32' W 093°14'410.2
2019-Feb-20 20:00N 29°35' W 093°17'5 9.4
2019-Feb-20 19:28N 29°40' W 093°20'4 8.9
2019-Feb-20 19:00N 29°44' W 093°20'4 8.4
2019-Feb-20 18:30N 29°48' W 093°21'4 7.8
2019-Feb-20 18:00N 29°52' W 093°21'4 8.4
2019-Feb-20 17:30N 29°56' W 093°20'4 7.6
2019-Feb-20 17:00N 30°00' W 093°20'4 7.5
2019-Feb-20 16:30N 30°04' W 093°20'3 6.9
2019-Feb-20 16:00N 30°07' W 093°20'2 4.7
2019-Feb-20 15:30N 30°10' W 093°19'2 4.2
2019-Feb-20 15:00N 30°11' W 093°18'2 4.1
2019-Feb-20 14:30N 30°12' W 093°16'1 1.1
2019-Feb-20 14:00N 30°13' W 093°16'0 0.0
2019-Feb-20 13:27N 30°13' W 093°16'0 0.0
2019-Feb-20 13:00N 30°13' W 093°16'0 0.0
2019-Feb-20 12:30N 30°13' W 093°16'0 0.0
2019-Feb-20 12:00N 30°13' W 093°16'0 0.1
2019-Feb-20 11:27N 30°13' W 093°16'0 0.1
2019-Feb-20 11:00N 30°13' W 093°16'0 0.0
2019-Feb-20 10:30N 30°13' W 093°16'0 0.0
2019-Feb-20 10:00N 30°13' W 093°16'0 0.0
2019-Feb-20 09:30N 30°13' W 093°16'0 0.0
2019-Feb-20 09:00N 30°13' W 093°16'0 0.0
2019-Feb-20 08:30N 30°13' W 093°16'0 0.0
2019-Feb-20 08:00N 30°13' W 093°16'0 0.0
2019-Feb-20 07:30N 30°13' W 093°16'0 0.0
2019-Feb-20 07:00N 30°13' W 093°16'0 0.0
2019-Feb-20 06:30N 30°13' W 093°16'0 0.0
2019-Feb-20 06:00N 30°13' W 093°16'0 0.0
2019-Feb-20 05:30N 30°13' W 093°16'0 0.0
2019-Feb-20 04:57N 30°13' W 093°16'0 0.0
2019-Feb-20 04:30N 30°13' W 093°16'0 0.0
2019-Feb-20 04:00N 30°13' W 093°16'0 0.1
2019-Feb-20 03:00N 30°13' W 093°16'0 0.0
2019-Feb-20 02:30N 30°13' W 093°16'0 0.0
2019-Feb-20 02:00N 30°13' W 093°16'0 0.0
2019-Feb-20 01:30N 30°13' W 093°16'0 0.0
2019-Feb-20 00:57N 30°13' W 093°16'0 0.0
2019-Feb-20 00:27N 30°13' W 093°16'0 0.0
2019-Feb-20 00:00N 30°13' W 093°16'0 0.0
2019-Feb-19 23:30N 30°13' W 093°16'0 0.0
2019-Feb-19 23:00N 30°13' W 093°16'0 0.0
2019-Feb-19 22:30N 30°13' W 093°16'0 0.0
2019-Feb-19 22:00N 30°13' W 093°16'0 0.0
2019-Feb-19 21:30N 30°13' W 093°16'0 0.0
2019-Feb-19 21:00N 30°13' W 093°16'0 0.0
2019-Feb-19 20:30N 30°13' W 093°16'0 0.0
2019-Feb-19 20:00N 30°13' W 093°16'0 0.0
2019-Feb-19 19:30N 30°13' W 093°16'0 0.0
2019-Feb-19 19:00N 30°13' W 093°16'0 0.5
2019-Feb-19 18:30N 30°13' W 093°16'1 2.0
2019-Feb-19 18:00N 30°14' W 093°15'0 0.0
2019-Feb-19 17:25N 30°14' W 093°15'0 0.0
2019-Feb-19 16:58N 30°14' W 093°15'0 0.0
2019-Feb-19 16:28N 30°14' W 093°15'0 0.0
2019-Feb-19 15:55N 30°14' W 093°15'0 0.0
2019-Feb-19 15:28N 30°14' W 093°15'0 0.0
2019-Feb-19 14:58N 30°14' W 093°15'0 0.0
2019-Feb-19 14:28N 30°14' W 093°15'0 0.0
2019-Feb-19 13:55N 30°14' W 093°15'0 0.0
2019-Feb-19 13:28N 30°14' W 093°15'0 0.0
2019-Feb-19 12:55N 30°14' W 093°15'0 0.0
2019-Feb-19 12:28N 30°14' W 093°15'0 0.0
2019-Feb-19 11:58N 30°14' W 093°15'0 0.0
2019-Feb-19 11:25N 30°14' W 093°15'0 0.0
2019-Feb-19 10:55N 30°14' W 093°15'0 0.0
2019-Feb-19 10:28N 30°14' W 093°15'0 0.0
2019-Feb-19 09:58N 30°14' W 093°15'0 0.0
2019-Feb-19 09:25N 30°14' W 093°15'0 0.0
2019-Feb-19 08:58N 30°14' W 093°15'0 0.0
2019-Feb-19 08:13N 30°14' W 093°15'0 0.0
2019-Feb-19 07:55N 30°14' W 093°15'0 0.0
2019-Feb-19 07:19N 30°14' W 093°15'0 0.0
2019-Feb-19 06:55N 30°14' W 093°15'0 0.0
2019-Feb-19 06:25N 30°14' W 093°15'0 0.0
2019-Feb-19 05:58N 30°14' W 093°15'0 0.0
2019-Feb-19 05:28N 30°14' W 093°15'0 0.0
2019-Feb-19 04:55N 30°14' W 093°15'0 0.0
2019-Feb-19 04:19N 30°14' W 093°15'0 0.0
2019-Feb-19 03:55N 30°14' W 093°15'0 0.0
2019-Feb-19 03:22N 30°14' W 093°15'0 0.0
2019-Feb-19 02:58N 30°14' W 093°15'0 0.0
2019-Feb-19 02:28N 30°14' W 093°15'0 0.0
2019-Feb-19 01:49N 30°14' W 093°15'0 0.0
2019-Feb-19 01:28N 30°14' W 093°15'0 0.0
2019-Feb-19 00:55N 30°14' W 093°15'0 0.0
2019-Feb-19 00:13N 30°14' W 093°15'0 0.0
2019-Feb-18 23:55N 30°14' W 093°15'0 0.0
2019-Feb-18 23:19N 30°14' W 093°15'0 0.0
2019-Feb-18 22:52N 30°14' W 093°15'0 0.0
2019-Feb-18 22:28N 30°14' W 093°15'0 0.0
2019-Feb-18 21:55N 30°14' W 093°15'0 0.0
2019-Feb-18 21:25N 30°14' W 093°15'0 0.0
2019-Feb-18 20:55N 30°14' W 093°15'0 0.0
2019-Feb-18 20:28N 30°14' W 093°15'0 0.0
2019-Feb-18 19:58N 30°14' W 093°15'0 0.0
2019-Feb-18 19:28N 30°14' W 093°15'0 0.0
2019-Feb-18 18:58N 30°14' W 093°15'0 0.0
2019-Feb-18 18:28N 30°14' W 093°15'0 0.0
2019-Feb-18 17:55N 30°14' W 093°15'0 0.0
2019-Feb-18 17:22N 30°14' W 093°15'0 0.0
2019-Feb-18 16:58N 30°14' W 093°15'0 0.0
2019-Feb-18 16:28N 30°14' W 093°15'0 0.0
2019-Feb-18 15:43N 30°14' W 093°15'0 0.0
2019-Feb-18 15:16N 30°14' W 093°15'0 0.0
2019-Feb-18 14:58N 30°14' W 093°15'0 0.0
2019-Feb-18 14:22N 30°14' W 093°15'0 0.0
2019-Feb-18 13:58N 30°14' W 093°15'0 0.0
2019-Feb-18 13:04N 30°14' W 093°15'0 0.0
2019-Feb-18 12:55N 30°14' W 093°15'0 0.0
2019-Feb-18 12:28N 30°14' W 093°15'0 0.0
2019-Feb-18 11:58N 30°14' W 093°15'0 0.0
2019-Feb-18 11:28N 30°14' W 093°15'0 0.0
2019-Feb-18 10:55N 30°14' W 093°15'0 0.0
2019-Feb-18 10:28N 30°14' W 093°15'0 0.0
2019-Feb-18 09:34N 30°14' W 093°15'0 0.0
2019-Feb-18 09:16N 30°14' W 093°15'0 0.0
2019-Feb-18 08:52N 30°14' W 093°15'0 0.0
2019-Feb-18 08:28N 30°14' W 093°15'0 0.0
2019-Feb-18 07:04N 30°14' W 093°15'0 0.0
2019-Feb-18 06:58N 30°14' W 093°15'0 0.0
2019-Feb-18 06:28N 30°14' W 093°15'0 0.0
2019-Feb-18 05:58N 30°14' W 093°15'0 0.0
2019-Feb-18 05:10N 30°14' W 093°15'0 0.0
2019-Feb-18 04:58N 30°14' W 093°15'0 0.0
2019-Feb-18 04:28N 30°14' W 093°15'0 0.0
2019-Feb-18 03:58N 30°14' W 093°15'0 0.0
2019-Feb-18 03:28N 30°14' W 093°15'0 0.0
2019-Feb-18 02:58N 30°14' W 093°15'0 0.0
2019-Feb-18 02:28N 30°14' W 093°15'0 0.0
2019-Feb-18 01:58N 30°14' W 093°15'0 0.0
2019-Feb-18 01:22N 30°14' W 093°15'0 0.0
2019-Feb-18 00:58N 30°14' W 093°15'0 0.0
2019-Feb-18 00:28N 30°14' W 093°15'0 0.0
2019-Feb-17 23:58N 30°14' W 093°15'0 0.0
2019-Feb-17 23:28N 30°14' W 093°15'0 0.0
2019-Feb-17 22:58N 30°14' W 093°15'0 0.0
2019-Feb-17 22:28N 30°14' W 093°15'0 0.0
2019-Feb-17 21:58N 30°14' W 093°15'0 0.0
2019-Feb-17 21:28N 30°14' W 093°15'0 0.0
2019-Feb-17 21:00N 30°14' W 093°15'1 1.4
2019-Feb-17 20:30N 30°13' W 093°16'3 6.3
2019-Feb-17 20:00N 30°11' W 093°18'3 5.3
2019-Feb-17 19:30N 30°09' W 093°20'4 7.6
2019-Feb-17 19:00N 30°05' W 093°20'4 8.3
2019-Feb-17 18:30N 30°01' W 093°20'4 7.7
2019-Feb-17 18:00N 29°57' W 093°20'5 9.2
2019-Feb-17 17:30N 29°52' W 093°21'5 9.6
2019-Feb-17 17:00N 29°48' W 093°21'510.4
2019-Feb-17 16:30N 29°42' W 093°20'8 9.4
2019-Feb-17 15:37N 29°35' W 093°16'3 0.8
2019-Feb-17 12:25N 29°34' W 093°13'0 0.0
2019-Feb-17 11:49N 29°34' W 093°13'0 0.0
2019-Feb-17 07:46N 29°34' W 093°13'0 0.0
2019-Feb-17 07:22N 29°34' W 093°13'0 0.0
2019-Feb-17 06:01N 29°34' W 093°13'0 0.0
2019-Feb-17 05:46N 29°34' W 093°13'0 0.0
2019-Feb-17 05:28N 29°34' W 093°13'0 0.0
2019-Feb-17 04:58N 29°34' W 093°13'0 0.0
2019-Feb-17 01:16N 29°34' W 093°13'0 0.0
2019-Feb-16 22:46N 29°34' W 093°13'75 3.7
2019-Feb-16 02:22N 28°20' W 092°59'  

Dump ship's entire track history